Time;durP1;ratioP1;P1;durP2;ratioP2;P2;SDS_P1;SDS_P2;PMS_P1;PMS_P2;Temp;Humidity;BMP_temperature;BMP_pressure;BME280_temperature;BME280_humidity;BME280_pressure;Samples;Min_cycle;Max_cycle;Signal;HPM_P1;HPM_P2
2022/05/16 00:01:03;;;;;;;;;;;;;;;22.09;80.74;98895.34;5036262;28;19917;-39
2022/05/16 00:03:28;;;;;;;;;;;;;;;22.14;80.02;98893.19;5035277;28;19930;-39
2022/05/16 00:05:53;;;;;;;;;;;;;;;21.85;81.67;98893.75;5034563;28;19917;-39
2022/05/16 00:08:19;;;;;;;;;;;;;;;20.82;85.42;98898.28;5036226;28;19924;-39
2022/05/16 00:10:44;;;;;;;;;;;;;;;21.80;83.04;98888.03;5037982;28;20296;-39
2022/05/16 00:13:09;;;;;;;;;;;;;;;21.73;82.16;98884.25;5035428;28;20352;-39
2022/05/16 00:15:35;;;;;;;;;;;;;;;21.49;84.41;98876.56;5033071;28;20666;-39
2022/05/16 00:18:00;;;;;;;;;;;;;;;21.34;86.20;98888.22;5031417;28;19944;-39
2022/05/16 00:20:26;;;;;;;;;;;;;;;21.52;84.10;98881.56;5036585;28;19920;-39
2022/05/16 00:22:51;;;;;;;;;;;;;;;21.53;84.72;98878.00;5033219;28;19932;-39
2022/05/16 00:25:17;;;;;;;;;;;;;;;21.87;80.80;98870.03;5037008;28;19932;-39
2022/05/16 00:27:42;;;;;;;;;;;;;;;21.65;83.23;98882.25;5031940;28;20015;-39
2022/05/16 00:30:08;;;;;;;;;;;;;;;21.66;82.71;98876.03;5037087;28;19916;-39
2022/05/16 00:32:33;;;;;;;;;;;;;;;21.54;83.70;98874.41;5034394;28;19928;-40
2022/05/16 00:34:59;;;;;;;;;;;;;;;21.26;83.03;98871.31;5033866;28;19968;-39
2022/05/16 00:37:24;;;;;;;;;;;;;;;21.21;83.80;98872.59;5033680;28;19974;-39
2022/05/16 00:39:49;;;;;;;;;;;;;;;21.36;85.52;98854.88;5034372;28;19928;-39
2022/05/16 00:42:14;;;;;;;;;;;;;;;20.51;88.21;98863.13;5032356;28;19975;-39
2022/05/16 00:44:40;;;;;;;;;;;;;;;21.64;85.14;98849.13;5035870;28;19924;-39
2022/05/16 00:47:05;;;;;;;;;;;;;;;21.82;81.46;98845.97;5036622;28;19925;-39
2022/05/16 00:49:35;;;;;;;;;;;;;;;20.64;87.44;98854.25;5038484;28;20010;-39
2022/05/16 00:52:09;;;;;;;;;;;;;;;20.87;83.86;98844.66;5033634;28;19917;-39
2022/05/16 00:54:44;;;;;;;;;;;;;;;20.55;86.62;98844.47;5013511;28;20798;-39
2022/05/16 00:57:13;;;;;;;;;;;;;;;21.23;82.14;98840.13;5034008;28;20032;-40
2022/05/16 00:59:53;;;;;;;;;;;;;;;20.94;83.89;98850.25;5017674;28;19920;-40
2022/05/16 01:05:04;;;;;;;;;;;;;;;21.31;81.31;98840.34;5022410;28;20019;-39
2022/05/16 01:07:29;;;;;;;;;;;;;;;20.96;84.07;98842.25;5033567;28;19975;-39
2022/05/16 01:09:54;;;;;;;;;;;;;;;20.88;87.68;98841.06;5035186;28;19924;-39
2022/05/16 01:12:20;;;;;;;;;;;;;;;21.27;83.60;98831.06;5034582;28;19939;-39
2022/05/16 01:14:46;;;;;;;;;;;;;;;20.84;85.80;98833.56;5016082;28;20341;-39
2022/05/16 01:17:11;;;;;;;;;;;;;;;20.90;84.77;98835.72;5038349;28;19956;-39
2022/05/16 01:19:37;;;;;;;;;;;;;;;20.98;86.00;98832.50;5033788;28;20045;-39
2022/05/16 01:22:22;;;;;;;;;;;;;;;20.94;84.93;98831.06;5017530;28;19967;-39
2022/05/16 01:24:47;;;;;;;;;;;;;;;21.12;84.28;98834.03;5036567;28;19925;-39
2022/05/16 01:27:13;;;;;;;;;;;;;;;20.23;85.95;98833.78;5034838;28;19924;-39
2022/05/16 01:29:38;;;;;;;;;;;;;;;21.13;85.37;98828.69;5035834;28;19921;-39
2022/05/16 01:32:03;;;;;;;;;;;;;;;20.92;83.28;98825.16;5031445;28;19917;-39
2022/05/16 01:34:28;;;;;;;;;;;;;;;20.98;84.32;98824.66;5031584;28;20002;-39
2022/05/16 01:36:54;;;;;;;;;;;;;;;21.08;82.66;98829.06;5036719;28;20534;-39
2022/05/16 01:39:19;;;;;;;;;;;;;;;21.22;84.37;98821.91;5034835;28;19974;-39
2022/05/16 01:41:45;;;;;;;;;;;;;;;20.88;84.13;98827.97;5016186;28;20718;-39
2022/05/16 01:44:10;;;;;;;;;;;;;;;21.07;85.51;98821.31;5035812;28;20318;-39
2022/05/16 01:46:37;;;;;;;;;;;;;;;20.77;86.64;98825.34;5032223;28;19932;-39
2022/05/16 01:49:03;;;;;;;;;;;;;;;21.32;83.01;98822.84;5031472;28;19975;-39
2022/05/16 01:51:28;;;;;;;;;;;;;;;21.56;82.26;98827.13;5031497;28;20028;-39
2022/05/16 01:53:54;;;;;;;;;;;;;;;21.74;79.87;98817.78;5030833;28;19921;-39
2022/05/16 01:56:19;;;;;;;;;;;;;;;21.16;82.66;98825.81;5029915;28;19921;-39
2022/05/16 01:58:45;;;;;;;;;;;;;;;21.79;77.12;98820.03;5016958;28;20267;-39
2022/05/16 02:01:10;;;;;;;;;;;;;;;22.34;72.61;98816.31;5028916;28;20343;-39
2022/05/16 02:03:39;;;;;;;;;;;;;;;22.74;70.76;98807.72;5030861;28;19921;-39
2022/05/16 02:06:05;;;;;;;;;;;;;;;22.40;72.00;98815.00;5027993;28;19944;-39
2022/05/16 02:08:30;;;;;;;;;;;;;;;22.46;72.19;98803.97;5037706;28;19921;-39
2022/05/16 02:10:55;;;;;;;;;;;;;;;22.89;70.45;98794.22;5034086;28;19936;-39
2022/05/16 02:13:20;;;;;;;;;;;;;;;22.99;70.26;98789.88;5029549;28;19921;-39
2022/05/16 02:15:46;;;;;;;;;;;;;;;22.90;68.83;98790.66;5028145;28;19929;-39
2022/05/16 02:18:11;;;;;;;;;;;;;;;23.10;69.01;98788.94;5031544;28;19921;-39
2022/05/16 02:20:36;;;;;;;;;;;;;;;23.14;69.16;98787.69;5030881;28;20008;-39
2022/05/16 02:25:49;;;;;;;;;;;;;;;22.89;71.26;98778.47;5033647;28;19985;-40
2022/05/16 02:28:16;;;;;;;;;;;;;;;22.65;72.63;98776.16;5032650;28;20806;-39
2022/05/16 02:30:44;;;;;;;;;;;;;;;22.56;73.94;98775.16;5037333;28;19966;-39
2022/05/16 02:33:10;;;;;;;;;;;;;;;22.28;75.92;98785.38;5034667;28;19932;-39
2022/05/16 02:35:35;;;;;;;;;;;;;;;22.17;78.41;98774.06;5027127;28;19959;-39
2022/05/16 02:38:02;;;;;;;;;;;;;;;22.33;77.05;98771.88;5036930;28;19916;-39
2022/05/16 02:40:28;;;;;;;;;;;;;;;22.07;77.53;98777.44;5028356;28;19921;-39
2022/05/16 02:42:53;;;;;;;;;;;;;;;21.21;82.70;98783.56;5028975;28;19920;-39
2022/05/16 02:45:18;;;;;;;;;;;;;;;20.69;88.53;98783.25;5031181;28;20381;-39
2022/05/16 02:47:44;;;;;;;;;;;;;;;21.19;85.33;98770.63;5029752;28;19916;-39
2022/05/16 02:50:09;;;;;;;;;;;;;;;21.62;82.61;98777.69;5028475;28;19937;-39
2022/05/16 02:52:34;;;;;;;;;;;;;;;21.89;80.47;98764.06;5029241;28;19917;-39
2022/05/16 02:55:03;;;;;;;;;;;;;;;21.27;82.39;98775.22;5028123;28;20054;-39
2022/05/16 02:57:29;;;;;;;;;;;;;;;21.25;83.28;98764.88;5029260;28;19924;-39
2022/05/16 02:59:54;;;;;;;;;;;;;;;21.47;82.14;98764.00;5031391;28;20034;-39
2022/05/16 03:02:19;;;;;;;;;;;;;;;21.52;81.60;98755.78;5013104;28;19921;-39
2022/05/16 03:04:45;;;;;;;;;;;;;;;22.08;78.11;98749.47;5026283;28;20325;-39
2022/05/16 03:07:10;;;;;;;;;;;;;;;22.32;74.36;98750.03;5032033;28;19973;-39
2022/05/16 03:09:35;;;;;;;;;;;;;;;22.47;74.09;98747.91;5033995;28;19921;-39
2022/05/16 03:12:01;;;;;;;;;;;;;;;22.40;74.26;98746.78;5026364;28;19920;-39
2022/05/16 03:14:26;;;;;;;;;;;;;;;22.39;74.47;98739.84;5026532;28;19952;-39
2022/05/16 03:16:51;;;;;;;;;;;;;;;22.38;74.95;98727.69;5027802;28;20008;-39
2022/05/16 03:19:17;;;;;;;;;;;;;;;22.39;74.35;98729.34;5028786;28;19925;-39
2022/05/16 03:21:42;;;;;;;;;;;;;;;22.39;73.57;98724.09;5026189;28;19932;-39
2022/05/16 03:24:10;;;;;;;;;;;;;;;21.88;75.50;98735.38;5028403;28;19956;-39
2022/05/16 03:26:36;;;;;;;;;;;;;;;22.08;74.92;98737.16;5025221;28;20003;-39
2022/05/16 03:29:01;;;;;;;;;;;;;;;22.24;75.20;98723.63;5029422;28;20780;-39
2022/05/16 03:31:27;;;;;;;;;;;;;;;22.19;73.69;98719.69;5024020;28;19921;-39
2022/05/16 03:33:52;;;;;;;;;;;;;;;22.30;73.20;98717.84;5022972;28;20354;-39
2022/05/16 03:36:17;;;;;;;;;;;;;;;22.23;74.02;98723.75;5008556;28;19936;-39
2022/05/16 03:41:26;;;;;;;;;;;;;;;21.99;75.34;98719.59;5023380;28;19971;-39
2022/05/16 03:43:51;;;;;;;;;;;;;;;22.16;75.47;98717.34;5024626;28;20370;-39
2022/05/16 03:46:17;;;;;;;;;;;;;;;21.86;76.78;98721.56;5025015;28;20569;-39
2022/05/16 03:48:42;;;;;;;;;;;;;;;22.01;74.73;98715.03;4992259;28;19921;-39
2022/05/16 03:51:08;;;;;;;;;;;;;;;22.03;77.04;98713.13;5028461;28;19924;-39
2022/05/16 03:53:36;;;;;;;;;;;;;;;22.09;76.21;98712.59;5024984;28;20097;-40
2022/05/16 03:56:02;;;;;;;;;;;;;;;21.83;78.21;98703.47;5026824;28;20684;-40
2022/05/16 03:58:27;;;;;;;;;;;;;;;21.88;78.48;98703.91;5013485;28;19927;-39
2022/05/16 04:00:52;;;;;;;;;;;;;;;21.96;78.46;98706.72;5031758;28;20698;-39
2022/05/16 04:03:17;;;;;;;;;;;;;;;21.90;78.58;98704.63;5034469;28;20559;-39
2022/05/16 04:05:43;;;;;;;;;;;;;;;22.00;75.35;98697.63;5032773;28;20457;-39
2022/05/16 04:08:08;;;;;;;;;;;;;;;22.22;77.08;98695.88;5035237;28;20758;-39
2022/05/16 04:10:33;;;;;;;;;;;;;;;22.32;77.01;98696.72;5033938;28;20381;-39
2022/05/16 04:12:58;;;;;;;;;;;;;;;22.29;76.85;98697.00;5028067;28;19971;-39
2022/05/16 04:15:25;;;;;;;;;;;;;;;21.87;80.25;98697.00;5037212;28;19929;-39
2022/05/16 04:17:50;;;;;;;;;;;;;;;21.36;83.54;98702.94;5035229;28;20005;-39
2022/05/16 04:20:16;;;;;;;;;;;;;;;21.79;80.53;98694.19;5024800;28;20008;-39
2022/05/16 04:22:41;;;;;;;;;;;;;;;21.87;79.63;98697.00;5017903;28;19925;-39
2022/05/16 04:25:08;;;;;;;;;;;;;;;22.38;78.17;98692.75;5039387;28;19962;-39
2022/05/16 04:27:33;;;;;;;;;;;;;;;22.54;76.02;98693.94;5014319;28;19927;-39
2022/05/16 04:29:58;;;;;;;;;;;;;;;22.81;74.89;98695.13;5032832;28;19917;-39
2022/05/16 04:32:23;;;;;;;;;;;;;;;22.51;77.63;98696.81;5029791;28;19917;-39
2022/05/16 04:34:48;;;;;;;;;;;;;;;21.62;80.33;98699.06;5029572;28;19925;-39
2022/05/16 04:37:14;;;;;;;;;;;;;;;21.83;83.13;98699.06;5034860;28;19920;-39
2022/05/16 04:39:39;;;;;;;;;;;;;;;22.21;81.46;98688.91;5039686;28;20007;-39
2022/05/16 04:44:48;;;;;;;;;;;;;;;22.94;77.28;98681.72;5042124;28;20474;-39
2022/05/16 04:47:13;;;;;;;;;;;;;;;23.21;74.62;98683.72;5039292;28;20035;-40
2022/05/16 04:49:40;;;;;;;;;;;;;;;23.37;73.63;98684.00;5043473;28;19920;-40
2022/05/16 04:52:05;;;;;;;;;;;;;;;23.65;73.83;98686.78;5025540;28;20743;-40
2022/05/16 04:54:31;;;;;;;;;;;;;;;23.66;74.63;98693.69;5037443;28;19920;-39
2022/05/16 04:56:56;;;;;;;;;;;;;;;23.55;78.88;98696.47;5037260;28;20439;-40
2022/05/16 04:59:22;;;;;;;;;;;;;;;23.72;76.23;98698.41;5038714;28;19928;-40
2022/05/16 05:01:47;;;;;;;;;;;;;;;23.63;70.64;98701.03;5043622;28;19928;-39
2022/05/16 05:04:12;;;;;;;;;;;;;;;22.84;71.39;98700.09;5043115;28;19916;-39
2022/05/16 05:06:39;;;;;;;;;;;;;;;22.19;70.96;98709.19;5044493;28;19923;-40
2022/05/16 05:09:04;;;;;;;;;;;;;;;22.70;68.25;98701.31;5021183;28;20388;-40
2022/05/16 05:14:32;;;;;;;;;;;;;;;23.02;66.12;98704.75;5035347;28;19974;-39
2022/05/16 05:16:57;;;;;;;;;;;;;;;22.32;68.41;98692.31;5034256;28;19913;-40
2022/05/16 05:19:23;;;;;;;;;;;;;;;22.46;67.56;98692.91;5032274;28;20495;-40
2022/05/16 05:21:48;;;;;;;;;;;;;;;22.83;65.75;98695.81;5036406;28;19917;-40
2022/05/16 05:24:13;;;;;;;;;;;;;;;22.97;65.79;98687.56;5029271;28;19917;-39
2022/05/16 05:26:42;;;;;;;;;;;;;;;22.79;67.70;98689.16;5031064;28;19920;-40
2022/05/16 05:29:08;;;;;;;;;;;;;;;23.57;63.30;98681.38;5035441;28;19924;-40
2022/05/16 05:31:33;;;;;;;;;;;;;;;23.76;62.90;98681.38;5029333;28;19924;-40
2022/05/16 05:33:59;;;;;;;;;;;;;;;23.63;62.23;98688.72;5034137;28;19924;-39
2022/05/16 05:36:27;;;;;;;;;;;;;;;23.76;61.60;98686.63;5031299;28;19921;-39
2022/05/16 05:38:52;;;;;;;;;;;;;;;23.86;61.83;98688.47;5014637;28;19971;-40
2022/05/16 05:41:18;;;;;;;;;;;;;;;23.42;64.49;98688.03;5032902;28;19956;-40
2022/05/16 05:43:43;;;;;;;;;;;;;;;23.63;64.63;98688.72;5033502;28;19939;-39
2022/05/16 05:46:08;;;;;;;;;;;;;;;23.79;60.95;98689.00;5032048;28;19928;-40
2022/05/16 05:48:34;;;;;;;;;;;;;;;23.89;60.68;98688.97;5017481;28;19923;-39
2022/05/16 05:50:59;;;;;;;;;;;;;;;24.76;59.07;98681.75;5033455;28;19917;-40
2022/05/16 05:53:24;;;;;;;;;;;;;;;25.11;56.64;98685.41;5034019;28;19917;-40
2022/05/16 05:55:50;;;;;;;;;;;;;;;25.10;54.32;98689.03;5029666;28;19921;-39
2022/05/16 05:58:15;;;;;;;;;;;;;;;25.29;57.91;98690.75;5030046;28;19928;-40
2022/05/16 06:00:41;;;;;;;;;;;;;;;26.11;52.76;98689.56;5033952;28;20382;-39
2022/05/16 06:03:06;;;;;;;;;;;;;;;27.27;50.27;98686.44;5013514;28;19917;-40
2022/05/16 06:05:31;;;;;;;;;;;;;;;27.33;50.97;98691.06;5031312;28;19917;-40
2022/05/16 06:07:56;;;;;;;;;;;;;;;26.39;64.22;98697.31;5017251;28;19916;-40
2022/05/16 06:10:22;;;;;;;;;;;;;;;26.36;69.08;98692.34;5027623;28;19917;-40
2022/05/16 06:12:47;;;;;;;;;;;;;;;27.42;63.21;98682.16;5030210;28;19943;-39
2022/05/16 06:15:13;;;;;;;;;;;;;;;27.05;61.01;98693.13;5016621;28;19931;-40
2022/05/16 06:17:38;;;;;;;;;;;;;;;27.42;62.88;98690.09;5029521;28;19924;-39
2022/05/16 06:20:04;;;;;;;;;;;;;;;27.30;70.03;98692.22;5011813;28;19990;-39
2022/05/16 06:22:34;;;;;;;;;;;;;;;27.81;64.53;98683.31;5030770;28;19917;-40
2022/05/16 06:27:43;;;;;;;;;;;;;;;28.11;67.47;98685.25;5030012;28;19977;-40
2022/05/16 06:30:11;;;;;;;;;;;;;;;28.08;66.17;98698.00;5030072;28;19920;-40
2022/05/16 06:32:36;;;;;;;;;;;;;;;28.52;63.75;98705.53;5028846;28;19920;-40
2022/05/16 06:35:01;;;;;;;;;;;;;;;29.48;57.96;98704.34;5031777;28;20733;-40
2022/05/16 06:37:26;;;;;;;;;;;;;;;28.45;63.84;98708.00;5032619;28;20480;-40
2022/05/16 06:39:51;;;;;;;;;;;;;;;28.93;65.08;98708.00;5038219;28;20682;-40
2022/05/16 06:42:17;;;;;;;;;;;;;;;29.08;64.44;98703.63;5029215;28;20403;-40
2022/05/16 06:44:42;;;;;;;;;;;;;;;27.81;70.48;98710.59;5032850;28;19970;-40
2022/05/16 06:47:08;;;;;;;;;;;;;;;28.87;63.83;98706.03;5028081;28;19921;-40
2022/05/16 06:49:33;;;;;;;;;;;;;;;29.34;60.83;98713.06;5019202;28;20399;-40
2022/05/16 06:51:58;;;;;;;;;;;;;;;28.80;58.65;98702.41;5031018;28;19924;-40
2022/05/16 06:54:23;;;;;;;;;;;;;;;28.77;53.66;98708.91;5031888;28;20355;-40
2022/05/16 06:56:49;;;;;;;;;;;;;;;29.26;53.42;98715.78;5030408;28;19916;-40
2022/05/16 06:59:14;;;;;;;;;;;;;;;29.45;50.26;98710.00;5031726;28;19928;-40
2022/05/16 07:01:39;;;;;;;;;;;;;;;29.26;47.28;98705.97;5027940;28;20000;-40
2022/05/16 07:04:04;;;;;;;;;;;;;;;29.00;48.99;98700.97;5030583;28;19921;-40
2022/05/16 07:06:30;;;;;;;;;;;;;;;29.34;47.43;98705.13;5031319;28;19916;-39
2022/05/16 07:08:55;;;;;;;;;;;;;;;28.51;47.81;98712.66;5013427;28;19917;-40
2022/05/16 07:11:20;;;;;;;;;;;;;;;29.32;51.05;98709.75;5035594;28;19959;-39
2022/05/16 07:13:46;;;;;;;;;;;;;;;29.86;49.77;98720.31;5031450;28;19917;-40
2022/05/16 07:16:11;;;;;;;;;;;;;;;28.09;49.09;98718.19;5030556;28;19928;-40
2022/05/16 07:18:36;;;;;;;;;;;;;;;28.77;48.34;98724.78;5037198;28;20350;-40
2022/05/16 07:21:01;;;;;;;;;;;;;;;29.40;46.58;98723.00;5029343;28;20387;-40
2022/05/16 07:23:27;;;;;;;;;;;;;;;29.05;45.65;98725.16;5028969;28;20102;-40
2022/05/16 07:28:36;;;;;;;;;;;;;;;29.90;44.38;98724.28;5032825;28;19919;-40
2022/05/16 07:31:01;;;;;;;;;;;;;;;29.78;44.10;98731.00;5011192;28;19917;-40
2022/05/16 07:33:26;;;;;;;;;;;;;;;29.57;46.38;98734.28;5022773;28;19920;-39
2022/05/16 07:35:52;;;;;;;;;;;;;;;29.43;45.94;98743.84;5029416;28;19921;-39
2022/05/16 07:38:18;;;;;;;;;;;;;;;29.79;45.01;98737.97;5032255;28;20000;-39
2022/05/16 07:40:43;;;;;;;;;;;;;;;29.81;44.48;98742.09;5026598;28;20826;-40
2022/05/16 07:43:09;;;;;;;;;;;;;;;29.78;45.63;98741.63;5029648;28;19916;-40
2022/05/16 07:45:34;;;;;;;;;;;;;;;29.92;43.95;98743.47;5032128;28;19916;-40
2022/05/16 07:48:03;;;;;;;;;;;;;;;29.84;44.13;98740.91;5031433;28;20457;-40
2022/05/16 07:50:32;;;;;;;;;;;;;;;30.27;44.79;98753.63;5013140;28;19975;-40
2022/05/16 07:52:58;;;;;;;;;;;;;;;30.27;44.76;98749.16;5028625;28;19913;-40
2022/05/16 07:55:24;;;;;;;;;;;;;;;30.80;44.56;98743.75;5033900;28;19921;-40
2022/05/16 07:57:49;;;;;;;;;;;;;;;30.08;45.70;98752.31;5036535;28;20377;-40
2022/05/16 08:00:15;;;;;;;;;;;;;;;30.86;44.70;98751.03;5034215;28;20314;-40
2022/05/16 08:02:40;;;;;;;;;;;;;;;30.82;42.16;98750.53;5034311;28;19931;-40
2022/05/16 08:05:09;;;;;;;;;;;;;;;31.14;43.44;98750.31;5033727;28;19959;-40
2022/05/16 08:07:34;;;;;;;;;;;;;;;30.69;43.97;98755.66;5018802;28;19975;-40
2022/05/16 08:12:43;;;;;;;;;;;;;;;31.50;44.79;98768.94;5036649;28;20039;-40
2022/05/16 08:15:08;;;;;;;;;;;;;;;30.91;43.93;98775.22;5037548;28;20747;-40
2022/05/16 08:17:34;;;;;;;;;;;;;;;31.40;44.56;98771.06;5034700;28;20431;-40
2022/05/16 08:19:59;;;;;;;;;;;;;;;31.52;45.43;98771.41;5032833;28;20331;-40
2022/05/16 08:22:28;;;;;;;;;;;;;;;31.52;47.66;98769.59;5034092;28;19912;-40
2022/05/16 08:24:54;;;;;;;;;;;;;;;31.27;46.30;98769.91;5037732;28;20016;-39
2022/05/16 08:27:19;;;;;;;;;;;;;;;30.72;51.49;98784.53;5033412;28;20328;-40
2022/05/16 08:29:45;;;;;;;;;;;;;;;30.46;52.55;98781.53;5034472;28;20027;-40
2022/05/16 08:32:13;;;;;;;;;;;;;;;30.87;51.00;98783.75;5034471;28;19916;-40
2022/05/16 08:34:38;;;;;;;;;;;;;;;30.92;51.20;98792.00;5038466;28;19972;-40
2022/05/16 08:39:55;;;;;;;;;;;;;;;29.09;52.09;98802.56;5040288;28;19973;-40
2022/05/16 08:42:44;;;;;;;;;;;;;;;29.13;53.60;98810.00;5037791;28;19940;-40
2022/05/16 08:45:11;;;;;;;;;;;;;;;28.71;53.72;98808.44;5025980;28;19920;-39
2022/05/16 08:47:55;;;;;;;;;;;;;;;28.95;54.26;98818.16;5023674;28;20282;-39
2022/05/16 08:50:24;;;;;;;;;;;;;;;28.88;54.68;98819.03;5019034;28;19959;-40
2022/05/16 08:53:15;;;;;;;;;;;;;;;28.90;54.31;98822.34;5039371;28;19920;-40
2022/05/16 08:55:48;;;;;;;;;;;;;;;28.50;57.25;98822.25;5032814;28;19920;-39
2022/05/16 08:58:29;;;;;;;;;;;;;;;28.62;59.07;98824.53;5019741;28;20377;-40
2022/05/16 09:01:08;;;;;;;;;;;;;;;28.03;62.37;98840.63;5015431;28;19916;-39
2022/05/16 09:03:47;;;;;;;;;;;;;;;27.48;66.08;98842.84;5020989;28;19917;-39
2022/05/16 09:06:15;;;;;;;;;;;;;;;27.83;64.97;98846.22;5016719;28;20523;-39
2022/05/16 09:08:53;;;;;;;;;;;;;;;27.81;65.43;98848.19;5018703;28;19996;-39
2022/05/16 09:11:25;;;;;;;;;;;;;;;27.43;68.04;98853.06;5019007;28;19921;-40
2022/05/16 09:13:52;;;;;;;;;;;;;;;27.53;67.23;98851.13;5015866;28;19924;-39
2022/05/16 09:16:23;;;;;;;;;;;;;;;27.96;64.75;98851.03;5017814;28;20476;-39
2022/05/16 09:18:48;;;;;;;;;;;;;;;28.01;66.80;98853.19;5029013;28;19921;-40
2022/05/16 09:21:14;;;;;;;;;;;;;;;28.36;67.96;98850.22;5034962;28;19924;-39
2022/05/16 09:23:43;;;;;;;;;;;;;;;28.05;69.20;98859.81;5032705;28;19951;-39
2022/05/16 09:26:27;;;;;;;;;;;;;;;28.32;71.02;98856.84;5028679;28;19932;-39
2022/05/16 09:28:57;;;;;;;;;;;;;;;28.38;73.14;98859.84;5027754;28;19930;-39
2022/05/16 09:31:28;;;;;;;;;;;;;;;28.65;72.92;98866.63;5012071;28;19917;-40
2022/05/16 09:33:55;;;;;;;;;;;;;;;28.68;72.15;98866.28;5008549;28;19917;-39
2022/05/16 09:36:30;;;;;;;;;;;;;;;28.39;72.54;98866.78;5028629;28;20983;-39
2022/05/16 09:38:55;;;;;;;;;;;;;;;28.73;72.42;98864.75;5031646;28;19916;-39
2022/05/16 09:41:24;;;;;;;;;;;;;;;28.52;73.28;98865.31;5030329;28;20400;-39
2022/05/16 09:44:03;;;;;;;;;;;;;;;28.38;72.74;98865.13;5013328;28;19925;-39
2022/05/16 09:46:46;;;;;;;;;;;;;;;28.66;74.26;98861.13;5014953;28;19917;-40
2022/05/16 09:49:26;;;;;;;;;;;;;;;27.98;75.22;98853.53;5010615;28;20283;-39
2022/05/16 09:51:54;;;;;;;;;;;;;;;28.51;71.75;98849.56;5033074;28;19916;-40
2022/05/16 09:54:28;;;;;;;;;;;;;;;28.16;70.21;98848.91;5029631;28;20006;-39
2022/05/16 09:57:02;;;;;;;;;;;;;;;28.22;74.33;98856.19;5032164;28;19975;-40
2022/05/16 09:59:33;;;;;;;;;;;;;;;28.34;73.39;98854.84;5028630;28;20086;-39
2022/05/16 10:02:06;;;;;;;;;;;;;;;28.32;71.29;98848.88;5029207;28;20402;-39
2022/05/16 10:04:33;;;;;;;;;;;;;;;28.22;71.31;98850.91;5027695;28;20861;-39
2022/05/16 10:07:02;;;;;;;;;;;;;;;28.00;70.63;98851.53;5013345;28;19921;-39
2022/05/16 10:09:36;;;;;;;;;;;;;;;28.83;68.99;98850.50;5011108;28;20395;-39
2022/05/16 10:12:01;;;;;;;;;;;;;;;28.43;70.00;98846.91;5011461;28;20777;-39
2022/05/16 10:14:27;;;;;;;;;;;;;;;28.39;68.26;98853.53;5016656;28;19917;-39
2022/05/16 10:16:53;;;;;;;;;;;;;;;28.96;70.10;98854.25;5027997;28;19917;-39
2022/05/16 10:19:19;;;;;;;;;;;;;;;28.85;69.66;98861.75;5012360;28;19944;-39
2022/05/16 10:21:51;;;;;;;;;;;;;;;28.41;73.88;98860.31;5011716;28;19917;-40
2022/05/16 10:24:17;;;;;;;;;;;;;;;27.91;74.48;98870.06;5015449;28;19951;-40
2022/05/16 10:26:43;;;;;;;;;;;;;;;28.60;76.85;98864.44;5011064;28;20036;-39
2022/05/16 10:29:10;;;;;;;;;;;;;;;28.25;75.57;98874.38;5010205;28;19921;-39
2022/05/16 10:34:35;;;;;;;;;;;;;;;27.92;78.00;98879.66;5018533;28;19924;-39
2022/05/16 10:37:00;;;;;;;;;;;;;;;28.53;71.43;98871.41;5015162;28;19923;-39
2022/05/16 10:39:27;;;;;;;;;;;;;;;28.69;74.84;98874.06;5034356;28;19917;-39
2022/05/16 10:41:54;;;;;;;;;;;;;;;28.69;74.04;98871.41;5030217;28;19959;-39
2022/05/16 10:44:25;;;;;;;;;;;;;;;29.10;74.80;98870.50;5012397;28;20144;-39
2022/05/16 10:47:13;;;;;;;;;;;;;;;29.33;66.64;98866.09;5029020;28;19917;-39
2022/05/16 10:49:42;;;;;;;;;;;;;;;29.51;67.58;98879.09;5023383;28;19921;-40
2022/05/16 10:52:17;;;;;;;;;;;;;;;28.54;71.21;98867.78;5018239;28;20660;-40
2022/05/16 10:54:42;;;;;;;;;;;;;;;28.90;71.47;98870.88;5028779;28;19972;-39
2022/05/16 10:57:13;;;;;;;;;;;;;;;28.97;69.95;98865.72;5029415;28;20067;-40
2022/05/16 10:59:38;;;;;;;;;;;;;;;28.32;72.53;98863.97;5030654;28;19943;-39
2022/05/16 11:02:04;;;;;;;;;;;;;;;28.34;74.68;98861.97;5032728;28;20378;-40
2022/05/16 11:04:35;;;;;;;;;;;;;;;29.94;69.02;98855.63;5033831;28;19916;-39
2022/05/16 11:07:03;;;;;;;;;;;;;;;30.49;69.26;98863.53;5031234;28;20405;-40
2022/05/16 11:09:40;;;;;;;;;;;;;;;30.29;65.44;98864.06;5033429;28;20439;-40
2022/05/16 11:12:17;;;;;;;;;;;;;;;29.99;66.05;98855.97;5030759;28;19947;-40
2022/05/16 11:14:57;;;;;;;;;;;;;;;30.91;65.78;98860.31;5028584;28;19917;-40
2022/05/16 11:17:22;;;;;;;;;;;;;;;30.88;61.02;98849.19;5010934;28;19996;-40
2022/05/16 11:20:06;;;;;;;;;;;;;;;30.85;60.32;98855.72;5029571;28;19927;-40
2022/05/16 11:22:35;;;;;;;;;;;;;;;30.98;58.12;98852.44;5029300;28;19977;-40
2022/05/16 11:25:09;;;;;;;;;;;;;;;30.47;56.94;98852.25;5017153;28;19960;-40
2022/05/16 11:27:37;;;;;;;;;;;;;;;31.05;60.78;98850.69;5036626;28;19917;-40
2022/05/16 11:30:17;;;;;;;;;;;;;;;30.80;62.89;98852.75;5016548;28;19913;-40
2022/05/16 11:32:49;;;;;;;;;;;;;;;30.83;64.08;98858.50;5017207;28;19940;-40
2022/05/16 11:35:34;;;;;;;;;;;;;;;31.46;62.90;98852.84;5032504;28;20748;-40
2022/05/16 11:38:08;;;;;;;;;;;;;;;30.85;62.62;98859.19;5036462;28;20365;-39
2022/05/16 11:40:34;;;;;;;;;;;;;;;31.30;66.87;98863.69;5034144;28;19953;-40
2022/05/16 11:43:15;;;;;;;;;;;;;;;31.24;67.88;98855.41;5032174;28;20024;-40
2022/05/16 11:45:59;;;;;;;;;;;;;;;31.32;65.84;98862.47;5037218;28;20377;-40
2022/05/16 11:48:29;;;;;;;;;;;;;;;32.14;63.87;98856.03;5032386;28;19925;-40
2022/05/16 11:51:03;;;;;;;;;;;;;;;32.12;59.63;98851.91;5015437;28;19924;-40
2022/05/16 11:53:31;;;;;;;;;;;;;;;31.81;60.72;98855.66;5031322;28;20483;-39
2022/05/16 12:01:30;;;;;;;;;;;;;;;32.74;58.87;98853.81;5016316;28;19974;-40
2022/05/16 12:04:13;;;;;;;;;;;;;;;33.05;57.47;98849.91;5031974;28;20018;-40
2022/05/16 12:06:54;;;;;;;;;;;;;;;33.56;56.85;98848.69;5021217;28;19936;-40
2022/05/16 12:09:27;;;;;;;;;;;;;;;34.19;51.62;98837.72;5015477;28;20401;-40
2022/05/16 12:11:53;;;;;;;;;;;;;;;35.23;50.38;98839.59;5019162;28;19921;-40
2022/05/16 12:14:45;;;;;;;;;;;;;;;35.43;50.04;98836.03;5041092;28;19924;-40
2022/05/16 12:17:10;;;;;;;;;;;;;;;34.49;46.41;98838.94;5030380;28;20799;-40
2022/05/16 12:19:39;;;;;;;;;;;;;;;31.51;57.02;98844.31;5031930;28;19928;-40
2022/05/16 12:22:05;;;;;;;;;;;;;;;30.90;56.81;98839.22;5018736;28;19920;-40
2022/05/16 12:24:50;;;;;;;;;;;;;;;30.60;62.59;98833.84;5029301;28;19941;-40
2022/05/16 12:27:16;;;;;;;;;;;;;;;29.80;69.28;98845.78;5031628;28;19959;-40
2022/05/16 12:29:49;;;;;;;;;;;;;;;29.35;68.18;98842.03;5033967;28;20468;-40
2022/05/16 12:32:42;;;;;;;;;;;;;;;29.70;70.31;98835.41;5035057;28;19926;-40
2022/05/16 12:35:12;;;;;;;;;;;;;;;30.52;62.95;98847.22;5027625;28;19928;-40
2022/05/16 12:37:38;;;;;;;;;;;;;;;31.62;58.38;98847.28;5017305;28;20401;-40
2022/05/16 12:40:13;;;;;;;;;;;;;;;30.05;65.90;98848.28;5033716;28;20036;-40
2022/05/16 12:42:38;;;;;;;;;;;;;;;29.85;73.57;98850.56;5029987;28;19956;-40
2022/05/16 12:45:18;;;;;;;;;;;;;;;30.14;64.32;98848.03;5031430;28;20008;-39
2022/05/16 12:47:55;;;;;;;;;;;;;;;30.34;66.46;98843.06;5014882;28;19916;-40
2022/05/16 12:50:39;;;;;;;;;;;;;;;29.96;69.56;98845.66;5032607;28;19956;-40
2022/05/16 12:53:15;;;;;;;;;;;;;;;30.95;65.12;98842.13;5033359;28;19923;-40
2022/05/16 12:55:46;;;;;;;;;;;;;;;31.89;58.02;98836.91;5012702;28;19920;-39
2022/05/16 12:58:26;;;;;;;;;;;;;;;31.81;60.80;98832.53;5014751;28;19927;-40
2022/05/16 13:00:52;;;;;;;;;;;;;;;32.66;57.86;98832.63;5013881;28;19917;-40
2022/05/16 13:03:38;;;;;;;;;;;;;;;32.74;52.62;98835.16;5013278;28;20016;-40
2022/05/16 13:06:05;;;;;;;;;;;;;;;32.48;57.69;98839.28;5033449;28;19944;-40
2022/05/16 13:08:32;;;;;;;;;;;;;;;33.34;54.60;98846.94;5016513;28;19925;-40
2022/05/16 13:11:07;;;;;;;;;;;;;;;32.63;55.16;98839.19;5017454;28;19922;-40
2022/05/16 13:13:35;;;;;;;;;;;;;;;32.97;53.80;98837.53;5014552;28;19970;-40
2022/05/16 13:16:07;;;;;;;;;;;;;;;33.28;53.41;98836.28;5032311;28;19960;-41
2022/05/16 13:18:33;;;;;;;;;;;;;;;32.77;55.63;98837.41;5014412;28;19917;-40
2022/05/16 13:21:05;;;;;;;;;;;;;;;32.60;52.98;98838.78;5032831;28;19940;-40
2022/05/16 13:23:30;;;;;;;;;;;;;;;32.68;53.10;98844.78;5013569;28;19971;-40
2022/05/16 13:31:37;;;;;;;;;;;;;;;32.99;51.73;98840.84;5029016;28;19963;-40